バロー の空港の天気 - METARとTAF

Barrow, Wiley Post-Will Rogers Memorial Airport ( PABR / BRW ) - アメリカ アラスカ州バロー
飛行場実況気象(Metar)
観測時間01/19 01:53 AKST (01/19 10:53 UTC)
風向・風速西 8m/s
視程10km以上
天気現象
全天の8割程度の雲 雲底高度 370m
全天を覆う雲 雲底高度 1520m
気温-15.6℃
湿度83%
気圧1015.9hPa
METARPABR 191053Z AUTO 28016KT 10SM BKN012 OVC050 M16/M18 A3000 RMK SLP159 T11561178 FZRANO TSNO $ VIA AUTODIAL
過去の天気等 Google飛行場航空写真 Wunderground天気予報

過去48時間のMETAR

飛行場予報(TAF)
発表時間: 1/18 22:57 AKST (1/19 07:57 UTC)
予報対象時間: 18日23時 AKST ~ 19日21時 AKST
風向・風速西 9m/s
視程10km以上
天気現象もや
全天を覆う雲 雲底高度 400m
19日2時 AKST から
風向・風速西 6m/s
視程6440m
天気現象もや
全天を覆う雲 雲底高度 210m
19日14時 AKST から
風向・風速北西 5m/s
視程8050m
天気現象もや
全天を覆う雲 雲底高度 580m
19日18時 AKST から
風向・風速西北西 4m/s
視程10km以上
天気現象もや
全天を覆う雲 雲底高度 760m
PABR 190757Z 1908/2006 28017KT 6SM BR OVC013
FM191100 28011KT 4SM BR OVC007
FM192300 31009KT 5SM BR OVC019
FM200300 29007KT 6SM BR OVC025